Time;durP1;ratioP1;P1;durP2;ratioP2;P2;SDS_P1;SDS_P2;PMS_P1;PMS_P2;Temp;Humidity;BMP_temperature;BMP_pressure;BME280_temperature;BME280_humidity;BME280_pressure;Samples;Min_cycle;Max_cycle;Signal;HPM_P1;HPM_P2
2023/01/12 00:01:47;;;;;;;5.93;2.30;;;10.30;99.90;;;;;;934038;151;27513;-79
2023/01/12 00:04:14;;;;;;;2.60;1.97;;;10.30;99.90;;;;;;934661;150;27511;-79
2023/01/12 00:06:40;;;;;;;7.17;2.27;;;10.30;99.90;;;;;;935740;150;27486;-78
2023/01/12 00:09:07;;;;;;;4.03;2.13;;;10.40;99.90;;;;;;936078;150;27382;-78
2023/01/12 00:11:34;;;;;;;6.07;2.20;;;10.40;99.90;;;;;;905948;155;27526;-78
2023/01/12 00:14:00;;;;;;;7.80;2.30;;;10.40;99.90;;;;;;935560;150;27328;-78
2023/01/12 00:16:42;;;;;;;9.73;2.33;;;10.40;99.90;;;;;;935930;150;27479;-80
2023/01/12 00:19:11;;;;;;;5.80;1.97;;;10.50;99.90;;;;;;933617;150;27841;-80
2023/01/12 00:24:22;;;;;;;3.93;1.93;;;10.50;99.90;;;;;;911667;153;27524;-79
2023/01/12 00:26:49;;;;;;;6.30;2.50;;;10.60;99.90;;;;;;934989;150;27397;-78
2023/01/12 00:29:16;;;;;;;5.00;1.97;;;10.60;99.90;;;;;;935302;150;27371;-78
2023/01/12 00:31:42;;;;;;;5.80;1.73;;;10.60;99.90;;;;;;934799;150;27366;-81
2023/01/12 00:34:09;;;;;;;4.03;2.23;;;10.60;99.90;;;;;;934687;150;27505;-81
2023/01/12 00:36:35;;;;;;;5.50;2.20;;;10.70;99.90;;;;;;935204;150;27427;-80
2023/01/12 00:39:02;;;;;;;7.73;1.90;;;10.70;99.90;;;;;;935867;150;27468;-78
2023/01/12 00:46:48;;;;;;;8.57;2.53;;;10.80;99.70;;;;;;935811;150;27972;-79
2023/01/12 00:49:15;;;;;;;7.30;2.17;;;10.80;99.60;;;;;;935971;150;27499;-78
2023/01/12 00:51:42;;;;;;;6.53;2.47;;;10.80;99.50;;;;;;934515;150;27313;-78
2023/01/12 00:54:08;;;;;;;7.00;2.00;;;10.80;99.40;;;;;;935029;150;27314;-80
2023/01/12 00:56:35;;;;;;;6.07;2.20;;;10.80;99.40;;;;;;935632;150;27367;-78
2023/01/12 00:59:01;;;;;;;4.17;2.03;;;10.80;99.20;;;;;;936666;150;27860;-79
2023/01/12 01:01:28;;;;;;;4.67;1.90;;;10.80;99.30;;;;;;935443;150;27484;-78
2023/01/12 01:03:55;;;;;;;5.13;2.23;;;10.80;99.20;;;;;;935049;150;27535;-78
2023/01/12 01:06:21;;;;;;;7.13;2.17;;;10.80;99.00;;;;;;936491;150;27428;-80
2023/01/12 01:08:48;;;;;;;7.90;2.27;;;10.80;99.10;;;;;;935793;150;27358;-78
2023/01/12 01:11:14;;;;;;;6.90;2.40;;;10.80;99.00;;;;;;935419;150;27398;-80
2023/01/12 01:13:42;;;;;;;5.20;2.10;;;10.90;99.10;;;;;;936374;150;27476;-78
2023/01/12 01:16:08;;;;;;;9.30;2.27;;;10.90;99.00;;;;;;934675;150;27351;-79
2023/01/12 01:18:34;;;;;;;5.20;2.10;;;10.90;98.90;;;;;;934567;150;27345;-78
2023/01/12 01:21:01;;;;;;;8.93;2.00;;;10.90;98.90;;;;;;935010;150;27376;-79
2023/01/12 01:23:27;;;;;;;10.20;2.20;;;11.00;99.00;;;;;;935808;150;27496;-79
2023/01/12 01:25:54;;;;;;;7.40;2.13;;;11.00;99.00;;;;;;935422;150;27358;-78
2023/01/12 01:28:20;;;;;;;7.17;2.30;;;11.00;99.00;;;;;;935972;150;28005;-78
2023/01/12 01:30:47;;;;;;;4.53;2.10;;;11.00;98.90;;;;;;935958;150;27378;-80
2023/01/12 01:33:14;;;;;;;7.87;2.10;;;11.10;98.90;;;;;;934433;150;27384;-78
2023/01/12 01:35:40;;;;;;;5.23;1.70;;;11.10;98.60;;;;;;935541;150;27335;-78
2023/01/12 01:38:07;;;;;;;7.57;2.17;;;11.20;98.60;;;;;;935057;150;27503;-78
2023/01/12 01:40:33;;;;;;;7.50;2.07;;;11.20;98.40;;;;;;935499;150;27292;-78
2023/01/12 01:43:00;;;;;;;6.03;2.10;;;11.20;98.20;;;;;;935495;150;27483;-80
2023/01/12 01:45:27;;;;;;;8.23;2.30;;;11.30;98.30;;;;;;936088;150;27472;-79
2023/01/12 01:47:53;;;;;;;4.87;2.10;;;11.40;97.90;;;;;;935623;150;27339;-78
2023/01/12 01:50:23;;;;;;;4.93;2.03;;;11.30;97.70;;;;;;934776;150;27420;-79
2023/01/12 01:52:49;;;;;;;5.93;2.27;;;11.40;97.60;;;;;;930519;150;27299;-78
2023/01/12 01:55:16;;;;;;;5.83;2.00;;;11.40;97.30;;;;;;935516;150;27477;-78
2023/01/12 01:57:43;;;;;;;7.90;2.20;;;11.40;97.10;;;;;;935259;150;28429;-78
2023/01/12 02:00:09;;;;;;;6.37;1.80;;;11.40;96.90;;;;;;935525;150;27408;-79
2023/01/12 02:02:36;;;;;;;5.67;2.37;;;11.40;96.70;;;;;;935725;150;27300;-79
2023/01/12 02:05:02;;;;;;;5.03;2.43;;;11.50;96.80;;;;;;935500;150;27479;-81
2023/01/12 02:07:29;;;;;;;8.00;2.30;;;11.50;96.60;;;;;;933947;151;27464;-78
2023/01/12 02:09:56;;;;;;;8.03;2.13;;;11.40;96.70;;;;;;934204;151;27366;-78
2023/01/12 02:18:29;;;;;;;6.67;2.00;;;11.50;96.30;;;;;;933769;151;27444;-81
2023/01/12 02:21:01;;;;;;;5.53;1.83;;;11.50;96.30;;;;;;934285;151;27369;-78
2023/01/12 02:23:34;;;;;;;5.97;2.47;;;11.50;95.90;;;;;;932654;151;27390;-79
2023/01/12 02:26:00;;;;;;;8.13;2.10;;;11.50;96.10;;;;;;932195;151;27257;-78
2023/01/12 02:28:45;;;;;;;9.97;2.47;;;11.50;96.10;;;;;;932563;151;27357;-77
2023/01/12 02:31:30;;;;;;;3.53;1.80;;;11.50;95.60;;;;;;932728;151;27436;-78
2023/01/12 02:34:27;;;;;;;5.40;1.87;;;11.50;96.00;;;;;;933157;151;27387;-80
2023/01/12 02:37:11;;;;;;;8.20;2.40;;;11.50;96.10;;;;;;933476;151;27403;-80
2023/01/12 02:39:44;;;;;;;7.67;2.30;;;11.50;96.00;;;;;;936803;153;27897;-79
2023/01/12 02:42:40;;;;;;;7.00;2.17;;;11.50;96.00;;;;;;936166;150;27383;-78
2023/01/12 02:45:41;;;;;;;5.97;2.40;;;11.50;95.80;;;;;;937434;152;27319;-79
2023/01/12 02:48:25;;;;;;;3.97;2.07;;;11.50;96.10;;;;;;937008;153;27354;-80
2023/01/12 02:51:01;;;;;;;6.47;2.53;;;11.50;96.00;;;;;;937382;153;27359;-81
2023/01/12 02:53:27;;;;;;;7.33;2.07;;;11.40;96.00;;;;;;936504;150;27393;-80
2023/01/12 02:55:54;;;;;;;5.80;2.00;;;11.40;95.90;;;;;;937412;153;27348;-79
2023/01/12 02:58:20;;;;;;;4.83;2.10;;;11.40;96.10;;;;;;937643;153;27439;-77
2023/01/12 03:00:47;;;;;;;5.23;1.67;;;11.40;96.10;;;;;;937395;153;27398;-81
2023/01/12 03:03:16;;;;;;;6.90;2.03;;;11.40;96.00;;;;;;937130;150;27397;-78
2023/01/12 03:05:40;;;;;;;4.80;1.63;;;11.40;95.80;;;;;;937521;153;27402;-78
2023/01/12 03:08:07;;;;;;;4.67;2.20;;;11.40;95.60;;;;;;938411;153;27974;-78
2023/01/12 03:10:58;;;;;;;6.67;2.00;;;11.40;95.50;;;;;;938462;153;27363;-79
2023/01/12 03:13:24;;;;;;;7.83;2.10;;;11.40;95.40;;;;;;937763;150;27366;-81
2023/01/12 03:15:51;;;;;;;8.20;2.83;;;11.40;95.40;;;;;;936790;150;27425;-78
2023/01/12 03:18:17;;;;;;;4.93;2.30;;;11.30;95.20;;;;;;921433;155;27466;-77
2023/01/12 03:20:50;;;;;;;6.43;2.07;;;11.30;95.10;;;;;;923186;153;27415;-79
2023/01/12 03:23:19;;;;;;;6.43;2.00;;;11.20;95.20;;;;;;937592;150;27374;-79
2023/01/12 03:25:46;;;;;;;7.30;2.00;;;11.20;95.30;;;;;;938145;150;27816;-78
2023/01/12 03:28:13;;;;;;;9.63;2.60;;;11.20;95.60;;;;;;937566;153;27440;-78
2023/01/12 03:30:45;;;;;;;7.13;2.23;;;11.20;95.50;;;;;;937769;150;27311;-78
2023/01/12 03:33:11;;;;;;;8.03;2.27;;;11.20;95.70;;;;;;920809;153;27513;-82
2023/01/12 03:35:38;;;;;;;7.87;1.93;;;11.20;96.00;;;;;;921568;154;27464;-83
2023/01/12 03:38:10;;;;;;;8.83;2.50;;;11.20;96.10;;;;;;937542;153;27474;-82
2023/01/12 03:40:37;;;;;;;7.17;2.70;;;11.20;96.20;;;;;;937816;150;27933;-83
2023/01/12 03:43:15;;;;;;;5.73;1.80;;;11.20;96.10;;;;;;937499;150;27370;-82
2023/01/12 03:45:48;;;;;;;5.97;2.10;;;11.20;96.10;;;;;;937052;153;27385;-84
2023/01/12 03:48:29;;;;;;;5.57;2.10;;;11.30;96.30;;;;;;937943;151;27288;-82
2023/01/12 03:50:58;;;;;;;6.00;1.90;;;11.30;96.30;;;;;;937887;150;27349;-83
2023/01/12 03:53:25;;;;;;;8.53;2.47;;;11.40;96.40;;;;;;938111;150;27370;-83
2023/01/12 03:55:57;;;;;;;4.93;2.50;;;11.40;96.40;;;;;;938130;153;27367;-82
2023/01/12 03:58:24;;;;;;;7.30;2.37;;;11.50;96.40;;;;;;921088;155;27335;-83
2023/01/12 04:00:50;;;;;;;7.50;2.07;;;11.50;96.00;;;;;;919022;153;27292;-82
2023/01/12 04:03:17;;;;;;;5.37;2.00;;;11.50;96.00;;;;;;922585;153;27514;-82
2023/01/12 04:05:44;;;;;;;4.97;2.00;;;11.60;95.90;;;;;;919159;153;27434;-81
2023/01/12 04:08:10;;;;;;;8.53;2.57;;;11.60;95.90;;;;;;937675;150;27338;-83
2023/01/12 04:10:37;;;;;;;7.90;2.03;;;11.60;95.70;;;;;;937241;150;27290;-82
2023/01/12 04:13:03;;;;;;;8.60;2.20;;;11.70;95.70;;;;;;937466;150;27868;-82
2023/01/12 04:15:30;;;;;;;7.87;2.23;;;11.70;95.80;;;;;;937416;150;27376;-83
2023/01/12 04:17:57;;;;;;;6.67;2.43;;;11.70;95.70;;;;;;937381;150;27450;-82
2023/01/12 04:20:23;;;;;;;6.20;2.30;;;11.80;95.30;;;;;;936821;150;27338;-81
2023/01/12 04:22:50;;;;;;;10.30;2.63;;;11.80;95.40;;;;;;937319;150;27269;-82
2023/01/12 04:25:16;;;;;;;5.57;2.07;;;11.80;95.50;;;;;;936881;150;27425;-82
2023/01/12 04:27:49;;;;;;;5.97;2.40;;;11.80;95.30;;;;;;937214;153;27201;-83
2023/01/12 04:30:15;;;;;;;5.33;2.40;;;11.80;95.90;;;;;;937304;150;27174;-82
2023/01/12 04:32:42;;;;;;;4.55;1.75;;;11.90;95.40;;;;;;937114;150;27277;-82
2023/01/12 04:35:08;;;;;;;5.57;2.07;;;11.90;95.40;;;;;;937336;152;27288;-82
2023/01/12 04:37:35;;;;;;;8.37;2.17;;;11.90;95.40;;;;;;937316;150;27213;-82
2023/01/12 04:40:02;;;;;;;8.27;2.23;;;11.80;95.30;;;;;;937167;153;27365;-82
2023/01/12 04:45:13;;;;;;;8.57;2.33;;;11.80;95.00;;;;;;938244;150;27229;-82
2023/01/12 04:47:40;;;;;;;5.87;2.23;;;11.80;95.20;;;;;;937488;150;27423;-82
2023/01/12 04:50:06;;;;;;;8.07;2.17;;;11.80;95.30;;;;;;937065;150;28321;-82
2023/01/12 04:52:33;;;;;;;8.47;2.27;;;11.80;95.30;;;;;;936777;150;27261;-83
2023/01/12 04:54:59;;;;;;;7.83;2.43;;;11.80;95.10;;;;;;937363;150;27245;-82
2023/01/12 04:57:26;;;;;;;4.85;1.80;;;11.80;95.10;;;;;;937617;150;27230;-81
2023/01/12 04:59:53;;;;;;;7.57;2.00;;;11.80;95.30;;;;;;935717;151;27499;-82
2023/01/12 05:02:19;;;;;;;10.17;2.30;;;11.80;95.30;;;;;;921774;153;27445;-83
2023/01/12 05:04:46;;;;;;;5.23;1.93;;;11.80;95.30;;;;;;937670;152;27324;-83
2023/01/12 05:07:12;;;;;;;6.23;1.97;;;11.80;95.30;;;;;;936464;150;27399;-82
2023/01/12 05:12:24;;;;;;;4.72;2.20;;;11.90;95.00;;;;;;936063;150;27563;-82
2023/01/12 05:14:50;;;;;;;6.77;2.10;;;11.90;94.80;;;;;;919605;153;27453;-82
2023/01/12 05:17:17;;;;;;;7.60;2.57;;;11.90;94.40;;;;;;919397;152;27760;-82
2023/01/12 05:19:44;;;;;;;8.30;1.97;;;11.90;94.20;;;;;;935584;150;27476;-82
2023/01/12 05:22:10;;;;;;;5.53;1.93;;;11.90;94.50;;;;;;930508;151;27389;-83
2023/01/12 05:24:37;;;;;;;6.53;2.80;;;11.90;94.60;;;;;;934757;151;27538;-83
2023/01/12 05:27:03;;;;;;;5.70;1.97;;;12.00;94.40;;;;;;935397;150;27421;-82
2023/01/12 05:29:30;;;;;;;6.77;1.90;;;11.90;94.50;;;;;;935954;150;27374;-82
2023/01/12 05:31:56;;;;;;;5.37;2.30;;;11.90;94.50;;;;;;935352;150;27362;-83
2023/01/12 05:34:23;;;;;;;5.47;2.20;;;12.00;94.50;;;;;;935313;150;27464;-82
2023/01/12 05:36:50;;;;;;;4.57;1.93;;;11.90;94.40;;;;;;935175;150;27436;-82
2023/01/12 05:39:16;;;;;;;8.67;2.50;;;11.90;94.30;;;;;;935538;150;27448;-82
2023/01/12 05:44:28;;;;;;;5.90;1.97;;;11.90;94.30;;;;;;935819;150;27488;-82
2023/01/12 05:46:54;;;;;;;5.43;1.90;;;11.90;94.20;;;;;;919602;153;27424;-83
2023/01/12 05:49:21;;;;;;;6.03;2.07;;;11.80;94.20;;;;;;919545;153;27330;-83
2023/01/12 05:51:47;;;;;;;5.07;1.53;;;11.80;94.10;;;;;;919301;153;27405;-83
2023/01/12 05:54:14;;;;;;;4.87;2.47;;;11.80;94.20;;;;;;920044;153;27435;-83
2023/01/12 05:56:41;;;;;;;7.13;2.27;;;11.80;94.30;;;;;;919465;153;27435;-83
2023/01/12 05:59:07;;;;;;;4.03;2.03;;;11.80;94.40;;;;;;920461;153;27309;-83
2023/01/12 06:01:34;;;;;;;7.60;2.10;;;11.80;94.30;;;;;;935106;150;27473;-84
2023/01/12 06:04:00;;;;;;;4.57;2.03;;;11.70;94.30;;;;;;935517;150;27432;-83
2023/01/12 06:06:29;;;;;;;7.17;2.00;;;11.70;94.20;;;;;;935264;150;27394;-84
2023/01/12 06:08:54;;;;;;;4.60;2.00;;;11.70;94.10;;;;;;933263;151;27396;-83
2023/01/12 06:14:05;;;;;;;6.10;2.30;;;11.70;94.30;;;;;;917927;154;27372;-84
2023/01/12 06:16:32;;;;;;;3.63;1.73;;;11.70;94.40;;;;;;918084;153;27396;-83
2023/01/12 06:18:58;;;;;;;4.07;2.17;;;11.70;94.50;;;;;;926401;153;27473;-83
2023/01/12 06:21:25;;;;;;;7.87;1.67;;;11.80;94.50;;;;;;924963;154;27351;-83
2023/01/12 06:23:51;;;;;;;4.03;2.07;;;11.80;94.50;;;;;;934009;151;27423;-83
2023/01/12 06:26:18;;;;;;;4.53;1.83;;;11.80;94.50;;;;;;934225;153;27308;-83
2023/01/12 06:28:45;;;;;;;5.27;2.17;;;11.80;94.50;;;;;;934021;151;27367;-83
2023/01/12 06:31:11;;;;;;;6.87;2.93;;;11.80;94.20;;;;;;934346;153;27390;-83
2023/01/12 06:33:38;;;;;;;6.60;2.17;;;11.90;94.40;;;;;;933801;151;27703;-83
2023/01/12 06:36:04;;;;;;;7.40;1.97;;;11.90;94.40;;;;;;933707;151;27491;-83
2023/01/12 06:38:31;;;;;;;5.07;2.43;;;11.80;94.40;;;;;;934495;153;27421;-83
2023/01/12 06:41:00;;;;;;;6.37;2.50;;;11.90;94.50;;;;;;934244;153;27482;-84
2023/01/12 06:43:27;;;;;;;6.03;2.23;;;11.90;94.70;;;;;;933031;151;27476;-83
2023/01/12 06:45:53;;;;;;;3.77;1.70;;;11.80;94.70;;;;;;934368;153;27444;-83
2023/01/12 06:48:22;;;;;;;4.00;1.87;;;11.80;94.80;;;;;;934608;152;27436;-83
2023/01/12 06:50:47;;;;;;;11.13;6.27;;;11.80;94.80;;;;;;934450;150;27383;-83
2023/01/12 06:53:13;;;;;;;21.03;10.80;;;11.80;95.00;;;;;;918056;153;27497;-83
2023/01/12 06:55:40;;;;;;;8.80;4.20;;;11.70;95.20;;;;;;934347;150;27273;-84
2023/01/12 06:58:06;;;;;;;5.73;2.63;;;11.70;95.40;;;;;;933903;152;27206;-83
2023/01/12 07:00:33;;;;;;;5.47;2.40;;;11.70;95.60;;;;;;925233;152;27343;-82
2023/01/12 07:02:59;;;;;;;5.77;1.93;;;11.60;95.80;;;;;;934574;151;27395;-83
2023/01/12 07:05:26;;;;;;;5.20;1.80;;;11.60;96.00;;;;;;934620;151;27408;-84
2023/01/12 07:07:59;;;;;;;6.20;2.03;;;11.60;96.20;;;;;;934621;153;27328;-83
2023/01/12 07:10:25;;;;;;;4.70;1.97;;;11.50;96.40;;;;;;934349;153;27835;-83
2023/01/12 07:12:52;;;;;;;5.13;1.97;;;11.50;96.50;;;;;;934307;151;27379;-83
2023/01/12 07:15:18;;;;;;;7.23;2.27;;;11.50;96.80;;;;;;933480;151;27367;-83
2023/01/12 07:17:45;;;;;;;8.67;2.47;;;11.50;96.90;;;;;;934135;153;27370;-83
2023/01/12 07:20:11;;;;;;;3.87;1.80;;;11.40;96.90;;;;;;934309;153;27287;-83
2023/01/12 07:22:38;;;;;;;5.03;2.23;;;11.40;97.10;;;;;;933964;151;27407;-84
2023/01/12 07:25:05;;;;;;;4.93;2.10;;;11.40;97.20;;;;;;934116;151;27422;-83
2023/01/12 07:27:31;;;;;;;7.70;2.47;;;11.40;97.20;;;;;;933958;151;27380;-83
2023/01/12 07:29:58;;;;;;;5.90;2.10;;;11.40;97.30;;;;;;934548;153;27280;-82
2023/01/12 07:32:25;;;;;;;6.07;1.83;;;11.40;97.40;;;;;;934134;151;27362;-83
2023/01/12 07:34:51;;;;;;;4.87;1.57;;;11.30;97.30;;;;;;934246;153;27476;-83
2023/01/12 07:37:17;;;;;;;4.87;2.23;;;11.30;97.60;;;;;;933418;151;27369;-83
2023/01/12 07:39:44;;;;;;;8.47;2.30;;;11.40;97.70;;;;;;933964;151;27452;-83
2023/01/12 07:42:23;;;;;;;6.17;2.10;;;11.30;97.70;;;;;;934251;153;27371;-82
2023/01/12 07:44:49;;;;;;;4.47;1.90;;;11.40;97.80;;;;;;934508;151;27418;-83
2023/01/12 07:47:16;;;;;;;7.83;2.40;;;11.30;97.80;;;;;;933936;153;27380;-82
2023/01/12 07:49:42;;;;;;;5.90;1.97;;;11.30;97.90;;;;;;934080;151;27786;-83
2023/01/12 07:52:11;;;;;;;4.73;2.03;;;11.40;98.00;;;;;;934471;153;27363;-82
2023/01/12 07:54:38;;;;;;;5.03;1.90;;;11.30;98.40;;;;;;933791;151;27390;-83
2023/01/12 07:57:05;;;;;;;7.30;2.00;;;11.40;98.30;;;;;;933887;151;28716;-83
2023/01/12 07:59:31;;;;;;;5.07;2.03;;;11.30;98.30;;;;;;916803;153;27366;-82
2023/01/12 08:01:58;;;;;;;7.00;2.50;;;11.40;98.40;;;;;;918574;153;27350;-82
2023/01/12 08:04:24;;;;;;;5.83;2.20;;;11.40;98.50;;;;;;937229;150;27279;-82
2023/01/12 08:06:51;;;;;;;3.87;1.60;;;11.30;98.50;;;;;;937155;150;27938;-83
2023/01/12 08:09:17;;;;;;;5.60;2.30;;;11.30;98.60;;;;;;936475;151;27304;-82
2023/01/12 08:11:44;;;;;;;5.87;2.33;;;11.30;98.70;;;;;;935379;153;27285;-82
2023/01/12 08:14:11;;;;;;;8.03;2.80;;;11.40;98.90;;;;;;935362;150;27332;-82
2023/01/12 08:16:40;;;;;;;4.20;2.17;;;11.30;99.10;;;;;;934526;151;27382;-81
2023/01/12 08:19:09;;;;;;;6.73;2.40;;;11.30;99.20;;;;;;918386;156;27403;-82
2023/01/12 08:21:43;;;;;;;4.40;2.20;;;11.30;99.60;;;;;;933004;153;27365;-83
2023/01/12 08:24:05;;;;;;;3.03;1.77;;;11.30;99.60;;;;;;918012;153;27513;-83
2023/01/12 08:26:32;;;;;;;4.63;2.00;;;11.30;99.60;;;;;;933564;151;27332;-82
2023/01/12 08:29:13;;;;;;;4.83;1.70;;;11.30;99.70;;;;;;933446;153;27370;-82
2023/01/12 08:31:39;;;;;;;4.70;1.80;;;11.30;99.90;;;;;;933902;152;27318;-83
2023/01/12 08:34:06;;;;;;;2.83;1.63;;;11.30;99.90;;;;;;933750;151;27386;-83
2023/01/12 08:36:33;;;;;;;4.63;1.77;;;11.30;99.90;;;;;;933620;153;27379;-83
2023/01/12 08:39:00;;;;;;;6.70;2.10;;;11.20;99.90;;;;;;933829;153;27835;-82
2023/01/12 08:41:32;;;;;;;5.63;1.57;;;11.20;99.90;;;;;;933989;150;27405;-82
2023/01/12 08:44:09;;;;;;;4.50;1.67;;;11.20;99.90;;;;;;933939;151;27508;-81
2023/01/12 08:46:33;;;;;;;3.13;1.80;;;11.20;99.90;;;;;;933431;153;27304;-83
2023/01/12 08:49:00;;;;;;;6.73;1.80;;;11.20;99.90;;;;;;928109;152;28068;-82
2023/01/12 08:51:27;;;;;;;4.07;1.77;;;11.20;99.90;;;;;;934004;153;27367;-82
2023/01/12 08:53:53;;;;;;;6.33;1.83;;;11.20;99.90;;;;;;934159;151;28169;-83
2023/01/12 08:56:20;;;;;;;3.93;1.50;;;11.20;99.90;;;;;;933727;151;27377;-82
2023/01/12 08:58:46;;;;;;;6.33;1.90;;;11.20;99.90;;;;;;934425;153;27433;-82
2023/01/12 09:01:13;;;;;;;4.53;1.90;;;11.20;99.90;;;;;;933706;151;27432;-82
2023/01/12 09:03:39;;;;;;;4.60;1.53;;;11.20;99.90;;;;;;933942;151;27473;-83
2023/01/12 09:06:18;;;;;;;4.00;1.63;;;11.20;99.90;;;;;;934401;153;27511;-82
2023/01/12 09:08:45;;;;;;;4.93;1.53;;;11.20;99.90;;;;;;918423;153;27376;-83
2023/01/12 09:11:11;;;;;;;5.20;1.40;;;11.20;99.90;;;;;;934318;151;27391;-82
2023/01/12 09:13:38;;;;;;;3.23;1.23;;;11.20;99.90;;;;;;934560;151;27308;-82
2023/01/12 09:16:05;;;;;;;2.87;1.50;;;11.20;99.90;;;;;;917442;154;27405;-82
2023/01/12 09:18:31;;;;;;;2.90;1.70;;;11.20;99.90;;;;;;917460;153;27525;-82
2023/01/12 09:21:01;;;;;;;2.83;1.20;;;11.30;99.90;;;;;;918932;153;27304;-83
2023/01/12 09:23:27;;;;;;;3.13;1.33;;;11.30;99.90;;;;;;918318;156;27382;-83
2023/01/12 09:25:54;;;;;;;1.97;0.90;;;11.30;99.90;;;;;;918901;153;27467;-82
2023/01/12 09:28:20;;;;;;;3.97;1.23;;;11.30;99.90;;;;;;918967;154;27406;-82
2023/01/12 09:30:47;;;;;;;3.27;1.40;;;11.30;99.90;;;;;;933759;151;27377;-82
2023/01/12 09:33:13;;;;;;;3.93;1.30;;;11.40;99.90;;;;;;918758;153;27423;-82
2023/01/12 09:35:43;;;;;;;2.10;1.30;;;11.40;99.90;;;;;;926160;152;27367;-82
2023/01/12 09:38:06;;;;;;;2.40;1.13;;;11.40;99.90;;;;;;918093;154;27525;-82
2023/01/12 09:40:34;;;;;;;5.43;1.80;;;11.40;99.90;;;;;;925230;155;28240;-82
2023/01/12 09:48:29;;;;;;;3.17;1.27;;;11.50;99.90;;;;;;934556;153;27505;-82
2023/01/12 09:51:08;;;;;;;3.43;1.33;;;11.50;99.90;;;;;;934554;153;27386;-83
2023/01/12 09:53:34;;;;;;;2.20;1.10;;;11.40;99.90;;;;;;932630;151;27429;-83
2023/01/12 09:56:04;;;;;;;4.03;1.30;;;11.50;99.90;;;;;;934472;151;27409;-82
2023/01/12 09:58:52;;;;;;;5.47;1.60;;;11.50;99.90;;;;;;933329;153;27391;-82
2023/01/12 10:01:18;;;;;;;4.07;1.50;;;11.50;99.90;;;;;;934369;153;27476;-82
2023/01/12 10:03:45;;;;;;;3.17;1.30;;;11.50;99.90;;;;;;934171;151;27389;-83
2023/01/12 10:06:14;;;;;;;2.90;1.53;;;11.50;99.90;;;;;;934331;153;27351;-83
2023/01/12 10:08:41;;;;;;;3.30;1.30;;;11.50;99.90;;;;;;934334;153;27328;-83
2023/01/12 10:11:22;;;;;;;4.00;1.50;;;11.50;99.90;;;;;;934386;151;27403;-83
2023/01/12 10:14:16;;;;;;;4.00;1.20;;;11.50;99.90;;;;;;934037;151;27324;-83
2023/01/12 10:16:54;;;;;;;2.30;1.20;;;11.50;99.90;;;;;;933601;152;27335;-84
2023/01/12 10:19:42;;;;;;;2.93;1.20;;;11.50;99.90;;;;;;934417;151;27358;-84
2023/01/12 10:22:36;;;;;;;2.17;1.17;;;11.50;99.90;;;;;;933467;151;27359;-84
2023/01/12 10:25:26;;;;;;;3.67;1.77;;;11.50;99.90;;;;;;934284;151;27539;-82
2023/01/12 10:27:53;;;;;;;4.87;1.10;;;11.50;99.90;;;;;;934418;153;27459;-83
2023/01/12 10:30:25;;;;;;;2.93;1.20;;;11.60;99.90;;;;;;934517;153;27416;-83
2023/01/12 10:32:52;;;;;;;4.80;2.03;;;11.60;99.90;;;;;;933932;151;27304;-83
2023/01/12 10:35:18;;;;;;;3.20;1.30;;;11.60;99.90;;;;;;934483;153;27490;-82
2023/01/12 10:37:45;;;;;;;3.47;1.13;;;11.60;99.90;;;;;;933793;151;27338;-82
2023/01/12 10:40:30;;;;;;;2.93;1.20;;;11.70;99.90;;;;;;934204;153;27437;-82
2023/01/12 10:43:30;;;;;;;2.20;1.33;;;11.70;99.90;;;;;;933785;151;27327;-82
2023/01/12 10:45:52;;;;;;;2.77;1.20;;;11.70;99.90;;;;;;934483;153;27496;-83
2023/01/12 10:48:19;;;;;;;4.13;1.73;;;11.80;99.90;;;;;;929342;151;27448;-83
2023/01/12 10:50:45;;;;;;;3.07;1.30;;;11.80;99.90;;;;;;933690;153;27451;-82
2023/01/12 10:53:15;;;;;;;3.23;1.40;;;11.90;99.90;;;;;;932483;151;27468;-82
2023/01/12 10:55:41;;;;;;;2.17;1.10;;;11.90;99.90;;;;;;917641;153;27415;-83
2023/01/12 10:58:26;;;;;;;1.67;1.10;;;12.00;99.90;;;;;;918835;153;27332;-82
2023/01/12 11:00:52;;;;;;;3.23;1.83;;;12.00;99.90;;;;;;937145;150;27649;-83
2023/01/12 11:03:22;;;;;;;2.23;1.10;;;12.10;99.90;;;;;;937008;150;27276;-82
2023/01/12 11:05:49;;;;;;;2.67;1.10;;;12.20;99.90;;;;;;935585;150;27361;-83
2023/01/12 11:08:21;;;;;;;4.43;1.20;;;12.30;99.90;;;;;;937470;153;27242;-83
2023/01/12 11:10:47;;;;;;;2.10;1.23;;;12.40;99.90;;;;;;935283;151;27816;-82
2023/01/12 11:13:36;;;;;;;2.33;1.13;;;12.50;99.90;;;;;;937680;150;27381;-82
2023/01/12 11:16:04;;;;;;;2.10;1.10;;;12.50;99.90;;;;;;922894;153;27321;-83
2023/01/12 11:18:37;;;;;;;2.93;1.20;;;12.60;99.90;;;;;;936887;150;27830;-83
2023/01/12 11:21:10;;;;;;;2.37;0.90;;;12.70;99.90;;;;;;937545;150;27248;-83
2023/01/12 11:23:48;;;;;;;2.33;1.25;;;12.80;99.90;;;;;;937117;150;27292;-82
2023/01/12 11:26:15;;;;;;;4.20;1.50;;;12.80;99.90;;;;;;935874;150;27307;-83
2023/01/12 11:28:42;;;;;;;4.23;1.17;;;12.90;99.90;;;;;;937056;150;27217;-83
2023/01/12 11:31:11;;;;;;;2.00;1.00;;;12.90;99.90;;;;;;936673;150;27376;-83
2023/01/12 11:33:44;;;;;;;5.30;1.50;;;13.00;99.90;;;;;;936973;150;27321;-83
2023/01/12 11:36:19;;;;;;;4.17;1.10;;;13.00;99.90;;;;;;926256;150;27409;-83
2023/01/12 11:38:49;;;;;;;2.30;1.00;;;13.10;99.90;;;;;;920396;155;27499;-83
2023/01/12 11:41:21;;;;;;;2.23;1.10;;;13.20;99.90;;;;;;939533;148;27287;-82
2023/01/12 11:44:02;;;;;;;1.53;1.27;;;13.10;99.90;;;;;;926237;150;27287;-82
2023/01/12 11:46:29;;;;;;;2.50;1.13;;;13.20;99.90;;;;;;939219;148;27273;-82
2023/01/12 11:49:01;;;;;;;3.50;1.60;;;13.20;99.00;;;;;;938322;150;27284;-83
2023/01/12 11:51:29;;;;;;;2.17;1.20;;;13.10;99.10;;;;;;936864;150;27253;-83
2023/01/12 11:53:55;;;;;;;2.10;1.07;;;13.10;99.20;;;;;;937010;150;27753;-83
2023/01/12 11:56:33;;;;;;;1.70;0.90;;;13.10;99.40;;;;;;937265;150;27300;-83
2023/01/12 11:59:18;;;;;;;1.90;0.93;;;13.20;99.40;;;;;;935772;150;27296;-84
2023/01/12 12:01:50;;;;;;;1.40;1.07;;;13.20;99.10;;;;;;918371;153;27390;-83
2023/01/12 12:04:35;;;;;;;3.80;1.20;;;13.20;98.60;;;;;;936210;150;28043;-82
2023/01/12 12:07:07;;;;;;;1.27;1.02;;;13.20;98.10;;;;;;936332;151;27678;-84
2023/01/12 12:09:45;;;;;;;1.47;1.07;;;13.20;98.00;;;;;;920800;155;27393;-83
2023/01/12 12:12:30;;;;;;;1.05;0.70;;;13.20;98.30;;;;;;898621;156;27866;-83
2023/01/12 12:14:56;;;;;;;1.60;0.70;;;13.20;98.40;;;;;;920842;153;27423;-83
2023/01/12 12:17:44;;;;;;;1.60;0.70;;;13.20;98.50;;;;;;937088;150;27362;-82
2023/01/12 12:20:17;;;;;;;1.47;0.80;;;13.30;98.70;;;;;;921765;153;27380;-83
2023/01/12 12:22:46;;;;;;;0.53;0.53;;;13.30;98.20;;;;;;936910;150;28070;-83
2023/01/12 12:25:21;;;;;;;0.70;0.70;;;13.30;98.10;;;;;;936423;150;27898;-82
2023/01/12 12:27:48;;;;;;;1.60;0.57;;;13.30;97.80;;;;;;937938;151;27370;-84
2023/01/12 12:30:26;;;;;;;0.65;0.57;;;13.40;97.80;;;;;;921910;153;27299;-83
2023/01/12 12:32:59;;;;;;;4.23;0.87;;;13.40;97.50;;;;;;937714;150;27323;-83
2023/01/12 12:35:37;;;;;;;0.50;0.50;;;13.40;97.30;;;;;;938626;153;27373;-83
2023/01/12 12:38:04;;;;;;;1.27;0.80;;;13.40;97.10;;;;;;921878;155;27451;-83
2023/01/12 12:46:00;;;;;;;0.30;0.30;;;13.40;96.90;;;;;;938567;151;27486;-83
2023/01/12 12:48:47;;;;;;;0.37;0.37;;;13.40;96.90;;;;;;936798;153;27483;-83
2023/01/12 12:51:14;;;;;;;0.53;0.40;;;13.40;96.70;;;;;;938529;153;27443;-83
2023/01/12 12:53:40;;;;;;;0.65;0.65;;;13.40;97.00;;;;;;938781;150;27420;-82
2023/01/12 12:56:07;;;;;;;1.75;0.60;;;13.40;97.20;;;;;;938525;153;27389;-82
2023/01/12 12:58:45;;;;;;;0.60;0.60;;;13.40;97.20;;;;;;937306;150;27812;-82
2023/01/12 13:01:21;;;;;;;1.97;1.20;;;13.40;96.80;;;;;;937711;153;27357;-82
2023/01/12 13:03:50;;;;;;;1.27;0.73;;;13.40;96.90;;;;;;938420;150;27444;-83
2023/01/12 13:06:34;;;;;;;0.80;0.80;;;13.40;96.90;;;;;;937864;153;27409;-82
2023/01/12 13:09:04;;;;;;;1.73;0.60;;;13.40;96.90;;;;;;938107;153;27309;-83
2023/01/12 13:11:58;;;;;;;0.80;0.50;;;13.50;96.70;;;;;;920629;153;27763;-82
2023/01/12 13:14:27;;;;;;;0.60;0.60;;;13.50;96.80;;;;;;920538;153;27381;-83
2023/01/12 13:16:54;;;;;;;0.83;0.60;;;13.50;96.70;;;;;;920522;153;27416;-82
2023/01/12 13:19:36;;;;;;;0.60;0.60;;;13.50;96.80;;;;;;919658;155;27887;-83
2023/01/12 13:22:33;;;;;;;0.65;0.65;;;13.50;97.00;;;;;;920644;155;27428;-83
2023/01/12 13:25:02;;;;;;;1.07;0.65;;;13.60;96.90;;;;;;905400;156;27441;-84
2023/01/12 13:27:47;;;;;;;0.50;0.50;;;13.70;96.70;;;;;;918488;155;27337;-82
2023/01/12 13:30:23;;;;;;;0.90;0.90;;;13.70;96.40;;;;;;921110;155;27450;-82
2023/01/12 13:32:58;;;;;;;0.70;0.60;;;13.80;96.40;;;;;;919795;155;27957;-83
2023/01/12 13:35:34;;;;;;;2.75;0.95;;;13.80;95.50;;;;;;879982;158;27411;-82